createdAt,value
2023-05-10T05:01:09.491Z,12.96
2023-05-10T05:04:12.576Z,12.96
2023-05-10T05:07:15.190Z,12.37
2023-05-10T05:10:18.021Z,12.49
2023-05-10T05:13:20.731Z,12.44
2023-05-10T05:16:23.481Z,12.26
2023-05-10T05:19:25.887Z,12.27
2023-05-10T05:22:29.120Z,12.41
2023-05-10T05:25:31.500Z,12.42
2023-05-10T05:28:38.112Z,12.35
2023-05-10T05:31:43.265Z,12.54
2023-05-10T05:34:46.782Z,12.42
2023-05-10T05:37:49.294Z,12.73
2023-05-10T05:40:52.001Z,12.82
2023-05-10T05:43:54.560Z,13.20
2023-05-10T05:46:57.478Z,13.02
2023-05-10T05:49:59.927Z,12.89
2023-05-10T05:53:03.426Z,13.15
2023-05-10T05:56:06.033Z,13.42
2023-05-10T05:59:09.184Z,13.31
2023-05-10T06:02:11.970Z,13.52
2023-05-10T06:05:15.423Z,13.47
2023-05-10T06:08:18.042Z,13.92
2023-05-10T06:11:22.091Z,14.56
2023-05-10T06:14:24.668Z,14.86
2023-05-10T06:17:27.639Z,14.91
2023-05-10T06:20:32.561Z,14.79
2023-05-10T06:23:35.473Z,14.64
2023-05-10T06:26:37.934Z,15.41
2023-05-10T06:29:40.635Z,15.60
2023-05-10T06:32:45.183Z,16.40
2023-05-10T06:35:48.216Z,16.04
2023-05-10T06:38:51.935Z,15.13
2023-05-10T06:41:55.516Z,16.04
2023-05-10T06:44:58.104Z,16.73
2023-05-10T06:48:02.115Z,18.14
2023-05-10T06:51:05.659Z,18.02
2023-05-10T06:54:08.397Z,18.08
2023-05-10T06:57:23.364Z,16.99
2023-05-10T07:00:33.980Z,17.86
2023-05-10T07:03:36.633Z,16.96
2023-05-10T07:06:39.466Z,16.76
2023-05-10T07:09:42.041Z,16.90
2023-05-10T07:12:44.894Z,17.50
2023-05-10T07:15:47.501Z,17.36
2023-05-10T07:18:51.667Z,18.74
2023-05-10T07:21:54.072Z,19.27
2023-05-10T07:24:57.092Z,18.68
2023-05-10T07:27:59.521Z,18.66
2023-05-10T07:31:02.685Z,17.98
2023-05-10T07:34:06.954Z,18.30
2023-05-10T07:37:09.755Z,19.58
2023-05-10T07:40:12.504Z,17.83
2023-05-10T07:43:15.580Z,17.50
2023-05-10T07:46:18.356Z,17.64
2023-05-10T07:49:21.385Z,17.89
2023-05-10T07:52:23.974Z,18.06
2023-05-10T07:55:27.693Z,18.60
2023-05-10T07:58:30.402Z,17.71
2023-05-10T08:01:34.232Z,19.22
2023-05-10T08:04:37.093Z,17.86
2023-05-10T08:07:40.664Z,17.79
2023-05-10T08:10:43.742Z,17.60
2023-05-10T08:13:46.636Z,17.24
2023-05-10T08:16:49.461Z,16.86
2023-05-10T08:19:52.908Z,17.47
2023-05-10T08:22:56.225Z,17.64
2023-05-10T08:25:58.935Z,17.07
2023-05-10T08:29:01.686Z,18.38
2023-05-10T08:32:09.880Z,18.86
2023-05-10T08:35:12.570Z,18.47
2023-05-10T08:38:15.177Z,18.60
2023-05-10T08:41:21.949Z,18.32
2023-05-10T08:44:24.673Z,18.98
2023-05-10T08:47:27.718Z,18.03
2023-05-10T08:50:32.337Z,17.90
2023-05-10T08:53:37.659Z,17.95
2023-05-10T08:56:40.288Z,17.42
2023-05-10T08:59:43.980Z,17.11
2023-05-10T09:02:50.541Z,18.18
2023-05-10T09:05:54.511Z,19.09
2023-05-10T09:08:58.104Z,19.44
2023-05-10T09:12:00.868Z,18.13
2023-05-10T09:15:05.082Z,18.47
2023-05-10T09:18:08.138Z,18.66
2023-05-10T09:21:11.952Z,18.75
2023-05-10T09:24:14.654Z,18.75
2023-05-10T09:27:17.110Z,19.69
2023-05-10T09:30:32.576Z,19.38
2023-05-10T09:33:46.121Z,19.70
2023-05-10T09:37:05.250Z,19.63
2023-05-10T09:40:08.661Z,20.00
2023-05-10T09:43:11.876Z,19.42
2023-05-10T09:46:14.777Z,18.63
2023-05-10T09:49:17.568Z,18.72
2023-05-10T09:52:19.965Z,18.59
2023-05-10T09:55:24.637Z,17.88
2023-05-10T09:58:27.280Z,17.95
2023-05-10T10:01:31.433Z,18.84
2023-05-10T10:04:40.665Z,19.99
2023-05-10T10:07:43.353Z,19.47
2023-05-10T10:10:47.216Z,19.27
2023-05-10T10:13:50.362Z,18.52
2023-05-10T10:17:06.435Z,18.25
2023-05-10T10:20:12.270Z,18.10
2023-05-10T10:23:16.681Z,18.87
2023-05-10T10:26:22.060Z,20.30
2023-05-10T10:29:40.755Z,19.47
2023-05-10T10:33:29.262Z,19.79
2023-05-10T10:36:34.253Z,19.06
2023-05-10T10:39:37.990Z,19.47
2023-05-10T10:42:50.884Z,19.00
2023-05-10T10:46:17.129Z,19.69
2023-05-10T10:49:20.284Z,20.23
2023-05-10T10:52:34.373Z,19.49
2023-05-10T10:55:49.444Z,20.22
2023-05-10T10:58:54.663Z,19.54
2023-05-10T11:01:58.071Z,19.72
2023-05-10T11:05:02.213Z,20.02
2023-05-10T11:08:20.236Z,20.59
2023-05-10T11:11:24.072Z,19.52
2023-05-10T11:14:28.304Z,19.24
2023-05-10T11:17:31.909Z,19.46
2023-05-10T11:20:41.573Z,19.54
2023-05-10T11:23:53.677Z,19.19
2023-05-10T11:26:57.549Z,18.81
2023-05-10T11:30:00.453Z,18.17
2023-05-10T11:33:06.018Z,18.18
2023-05-10T11:36:13.167Z,18.73
2023-05-10T11:39:17.175Z,18.74
2023-05-10T11:42:20.737Z,18.57
2023-05-10T11:45:25.813Z,19.04
2023-05-10T11:48:30.451Z,18.59
2023-05-10T11:51:37.745Z,18.70
2023-05-10T11:54:52.570Z,18.63
2023-05-10T11:57:56.430Z,18.76
2023-05-10T12:01:01.114Z,18.67
2023-05-10T12:04:05.711Z,18.94
2023-05-10T12:07:11.450Z,19.35
2023-05-10T12:13:44.930Z,18.67
2023-05-10T12:16:50.109Z,18.95
2023-05-10T12:19:53.734Z,18.99
2023-05-10T12:23:00.726Z,19.39
2023-05-10T12:26:05.341Z,19.02
2023-05-10T12:29:19.298Z,19.21
2023-05-10T12:32:21.843Z,19.15
2023-05-10T12:35:25.216Z,19.55
2023-05-10T12:38:36.568Z,19.77
2023-05-10T12:41:41.479Z,19.38
2023-05-10T12:44:46.284Z,19.67
2023-05-10T12:47:49.753Z,19.48
2023-05-10T12:50:53.217Z,19.29
2023-05-10T12:53:56.824Z,19.28
2023-05-10T12:56:59.723Z,19.04
2023-05-10T13:00:04.871Z,18.79
2023-05-10T13:03:08.326Z,18.74
2023-05-10T13:06:15.122Z,18.92
2023-05-10T13:09:17.799Z,19.16
2023-05-10T13:12:20.542Z,19.61
2023-05-10T13:15:23.767Z,19.17
2023-05-10T13:18:27.670Z,19.60
2023-05-10T13:21:30.535Z,19.52
2023-05-10T13:24:33.634Z,19.84
2023-05-10T13:27:36.391Z,20.39
2023-05-10T13:30:39.185Z,21.14
2023-05-10T13:33:41.604Z,21.34
2023-05-10T13:36:44.536Z,20.95
2023-05-10T13:39:47.359Z,20.81
2023-05-10T13:42:51.326Z,20.65
2023-05-10T13:45:54.091Z,20.17
2023-05-10T13:48:58.076Z,19.81
2023-05-10T13:52:01.991Z,20.06
2023-05-10T13:55:05.360Z,20.27
2023-05-10T13:58:07.863Z,19.61
2023-05-10T14:01:10.640Z,19.58
2023-05-10T14:04:14.024Z,20.35
2023-05-10T14:07:16.618Z,20.17
2023-05-10T14:10:19.331Z,19.53
2023-05-10T14:13:22.164Z,19.78
2023-05-10T14:16:25.000Z,20.13
2023-05-10T14:19:28.272Z,19.97
2023-05-10T14:22:31.592Z,19.91
2023-05-10T14:25:34.294Z,19.22
2023-05-10T14:28:37.408Z,19.04
2023-05-10T14:31:40.157Z,19.41
2023-05-10T14:34:43.303Z,19.58
2023-05-10T14:37:46.026Z,19.61
2023-05-10T14:40:48.778Z,19.61
2023-05-10T14:43:51.399Z,19.54
2023-05-10T14:46:54.189Z,20.07
2023-05-10T14:49:56.773Z,19.78
2023-05-10T14:53:00.189Z,19.56
2023-05-10T14:56:02.750Z,19.61
2023-05-10T14:59:05.633Z,19.54
2023-05-10T15:02:09.406Z,19.25
2023-05-10T15:05:12.864Z,19.09
2023-05-10T15:08:15.902Z,18.81
2023-05-10T15:11:18.785Z,18.98
2023-05-10T15:14:21.519Z,18.96
2023-05-10T15:17:24.682Z,18.88
2023-05-10T15:20:27.283Z,18.83
2023-05-10T15:23:31.043Z,18.85
2023-05-10T15:26:33.775Z,18.81
2023-05-10T15:29:36.880Z,18.95
2023-05-10T15:32:41.095Z,18.73
2023-05-10T15:35:43.810Z,18.76
2023-05-10T15:38:46.531Z,18.88
2023-05-10T16:34:34.673Z,18.90
2023-05-10T16:37:37.611Z,18.90
2023-05-10T16:40:40.068Z,18.46
2023-05-10T16:43:42.741Z,18.32
2023-05-10T16:46:45.819Z,18.27
2023-05-10T16:49:48.638Z,18.24
2023-05-10T16:52:51.267Z,18.13
2023-05-10T16:55:54.113Z,18.17
2023-05-10T16:58:57.736Z,18.31
2023-05-10T17:02:04.198Z,18.24
2023-05-10T17:05:07.147Z,18.22
2023-05-10T17:08:10.468Z,18.23
2023-05-10T17:11:12.970Z,18.03
2023-05-10T17:14:15.773Z,17.79
2023-05-10T17:17:18.891Z,17.79
2023-05-10T17:20:22.309Z,17.88
2023-05-10T17:23:24.887Z,17.81
2023-05-10T17:26:27.863Z,17.64
2023-05-10T17:29:32.190Z,17.48
2023-05-10T17:32:35.100Z,17.43
2023-05-10T17:35:37.776Z,17.44
2023-05-10T17:38:40.632Z,17.34
2023-05-10T17:41:43.080Z,17.34
2023-05-10T17:44:46.130Z,17.38
2023-05-10T17:47:48.610Z,17.24
2023-05-10T17:50:51.652Z,17.32
2023-05-10T17:53:54.792Z,17.28
2023-05-10T17:56:58.233Z,17.20
2023-05-10T18:00:02.278Z,17.08
2023-05-10T18:03:07.491Z,17.10
2023-05-10T18:06:10.544Z,16.97
2023-05-10T18:09:13.232Z,17.00
2023-05-10T18:12:16.258Z,16.94
2023-05-10T18:15:19.042Z,16.94
2023-05-10T18:18:22.237Z,16.76
2023-05-10T18:21:25.017Z,16.75
2023-05-10T18:24:38.383Z,16.80
2023-05-10T18:27:42.396Z,16.80
2023-05-10T18:30:46.621Z,16.64
2023-05-10T18:33:49.199Z,16.62
2023-05-10T18:36:52.483Z,16.52
